Time;durP1;ratioP1;P1;durP2;ratioP2;P2;SDS_P1;SDS_P2;PMS_P1;PMS_P2;Temp;Humidity;BMP_temperature;BMP_pressure;BME280_temperature;BME280_humidity;BME280_pressure;Samples;Min_cycle;Max_cycle;Signal;HPM_P1;HPM_P2
2021/12/11 00:00:51;;;;;;;49.78;22.75;;;-0.70;99.90;;;;;;5050733;28;20025;-76
2021/12/11 00:03:28;;;;;;;41.03;18.45;;;-0.70;99.90;;;;;;5050974;28;20049;-76
2021/12/11 00:05:59;;;;;;;37.80;18.35;;;-0.70;99.90;;;;;;5051472;28;20018;-76
2021/12/11 00:08:27;;;;;;;40.88;18.60;;;-0.70;99.90;;;;;;5051353;28;20033;-76
2021/12/11 00:11:08;;;;;;;45.15;20.83;;;-0.80;99.90;;;;;;5051473;28;20037;-76
2021/12/11 00:13:38;;;;;;;38.15;19.75;;;-0.80;99.90;;;;;;5051104;28;20028;-76
2021/12/11 00:16:06;;;;;;;41.58;21.80;;;-0.80;99.90;;;;;;5051282;28;20040;-76
2021/12/11 00:18:33;;;;;;;50.67;21.38;;;-0.80;99.90;;;;;;5051610;28;20025;-76
2021/12/11 00:21:02;;;;;;;43.03;20.38;;;-0.90;99.90;;;;;;5051179;28;20032;-76
2021/12/11 00:23:38;;;;;;;46.65;20.38;;;-0.90;99.90;;;;;;5051351;28;20029;-76
2021/12/11 00:26:06;;;;;;;50.53;21.08;;;-0.90;99.90;;;;;;5051209;28;20040;-76
2021/12/11 00:28:32;;;;;;;43.65;21.65;;;-0.90;99.90;;;;;;5051232;28;20021;-76
2021/12/11 00:30:58;;;;;;;42.55;20.65;;;-0.90;99.90;;;;;;5051546;28;20177;-76
2021/12/11 00:33:30;;;;;;;42.47;21.40;;;-0.90;99.90;;;;;;5051286;28;20119;-76
2021/12/11 00:35:56;;;;;;;;;;;-0.90;99.90;;;;;;5051665;28;20471;-76
2021/12/11 00:38:26;;;;;;;41.25;20.50;;;-0.90;99.90;;;;;;5051395;28;19919;-76
2021/12/11 00:40:54;;;;;;;40.15;19.40;;;-1.00;99.90;;;;;;5050072;28;20025;-76
2021/12/11 00:43:27;;;;;;;43.15;19.95;;;-0.90;99.90;;;;;;5054590;28;20035;-76
2021/12/11 00:45:54;;;;;;;45.65;20.33;;;-0.90;99.90;;;;;;5055007;28;20131;-76
2021/12/11 00:48:23;;;;;;;45.58;19.70;;;-0.90;99.90;;;;;;5054991;28;20037;-76
2021/12/11 00:50:53;;;;;;;37.90;18.02;;;-1.00;99.90;;;;;;5053038;28;20128;-76
2021/12/11 00:53:27;;;;;;;32.90;17.50;;;-1.00;99.90;;;;;;5054855;28;20021;-76
2021/12/11 00:56:10;;;;;;;39.78;18.75;;;-1.00;99.90;;;;;;5054726;28;20032;-76
2021/12/11 00:58:39;;;;;;;41.15;18.95;;;-1.00;99.90;;;;;;5054903;28;20029;-76
2021/12/11 01:01:07;;;;;;;38.55;19.35;;;-0.90;99.90;;;;;;5062136;28;20359;-76
2021/12/11 01:04:04;;;;;;;42.40;18.63;;;-0.90;99.90;;;;;;5074696;28;20332;-76
2021/12/11 01:06:38;;;;;;;38.63;18.00;;;-0.90;99.90;;;;;;5072302;28;20575;-76
2021/12/11 01:09:14;;;;;;;38.35;17.67;;;-0.90;99.90;;;;;;5074369;28;20032;-76
2021/12/11 01:12:05;;;;;;;39.05;17.73;;;-0.90;99.90;;;;;;5074595;28;20028;-76
2021/12/11 01:14:43;;;;;;;35.17;17.60;;;-0.90;99.90;;;;;;5068814;28;20040;-76
2021/12/11 01:17:12;;;;;;;40.90;17.80;;;-0.90;99.90;;;;;;5074374;28;20040;-76
2021/12/11 01:19:40;;;;;;;38.60;16.98;;;-0.90;99.90;;;;;;5070554;28;20487;-76
2021/12/11 01:22:32;;;;;;;35.63;18.10;;;-0.90;99.90;;;;;;5053155;28;20053;-76
2021/12/11 01:25:00;;;;;;;40.22;18.67;;;-0.90;99.90;;;;;;5054238;28;20036;-76
2021/12/11 01:27:27;;;;;;;39.78;18.67;;;-0.90;99.90;;;;;;5052744;28;20036;-76
2021/12/11 01:29:56;;;;;;;40.53;18.17;;;-0.90;99.90;;;;;;5054358;28;20024;-76
2021/12/11 01:32:26;;;;;;;35.58;16.65;;;-0.90;99.90;;;;;;5054132;28;20475;-76
2021/12/11 01:34:53;;;;;;;39.65;17.98;;;-0.90;99.90;;;;;;5054037;28;20048;-76
2021/12/11 01:37:19;;;;;;;43.58;17.80;;;-0.90;99.90;;;;;;5054152;28;20021;-76
2021/12/11 01:39:48;;;;;;;40.72;18.58;;;-0.90;99.90;;;;;;5053421;28;20104;-76
2021/12/11 01:42:19;;;;;;;41.10;18.50;;;-0.90;99.90;;;;;;5053946;28;20479;-76
2021/12/11 01:44:47;;;;;;;40.13;18.00;;;-0.90;99.90;;;;;;5052701;28;20070;-76
2021/12/11 01:47:18;;;;;;;39.33;18.73;;;-1.00;99.90;;;;;;5053676;28;20068;-76
2021/12/11 01:49:49;;;;;;;39.75;18.52;;;-0.90;99.90;;;;;;5052131;28;20048;-76
2021/12/11 01:52:33;;;;;;;38.20;17.88;;;-0.90;99.90;;;;;;5053311;28;20033;-76
2021/12/11 01:55:00;;;;;;;37.85;18.75;;;-0.90;99.90;;;;;;5052037;28;20793;-76
2021/12/11 01:57:28;;;;;;;40.00;17.77;;;-0.90;99.90;;;;;;5053547;28;20029;-76
2021/12/11 02:00:14;;;;;;;37.05;17.98;;;-0.90;99.90;;;;;;5053317;28;20028;-76
2021/12/11 02:02:47;;;;;;;39.25;18.00;;;-0.90;99.90;;;;;;5053488;28;20021;-76
2021/12/11 02:05:18;;;;;;;39.97;18.60;;;-0.90;99.90;;;;;;5053235;28;20064;-76
2021/12/11 02:07:48;;;;;;;44.30;18.85;;;-0.80;99.90;;;;;;5052743;28;20043;-76
2021/12/11 02:10:21;;;;;;;38.50;18.27;;;-0.80;99.90;;;;;;5053134;28;20025;-76
2021/12/11 02:12:48;;;;;;;39.22;18.45;;;-0.80;99.90;;;;;;5053073;28;20555;-76
2021/12/11 02:15:26;;;;;;;36.92;17.45;;;-0.80;99.90;;;;;;5051935;28;20101;-76
2021/12/11 02:18:09;;;;;;;35.33;17.63;;;-0.70;99.90;;;;;;5053006;28;20040;-76
2021/12/11 02:20:41;;;;;;;41.67;18.20;;;-0.70;99.90;;;;;;5052962;28;20029;-76
2021/12/11 02:23:07;;;;;;;39.03;17.27;;;-0.70;99.90;;;;;;5053130;28;20039;-76
2021/12/11 02:25:38;;;;;;;39.35;17.10;;;-0.70;99.90;;;;;;5052567;28;20036;-76
2021/12/11 02:28:36;;;;;;;38.97;19.23;;;-0.60;99.90;;;;;;5052933;28;20060;-76
2021/12/11 02:31:15;;;;;;;38.10;18.05;;;-0.60;99.90;;;;;;5030539;28;20041;-76
2021/12/11 02:33:59;;;;;;;44.65;19.50;;;-0.50;99.90;;;;;;5030535;28;20210;-76
2021/12/11 02:36:36;;;;;;;41.00;17.70;;;-0.50;99.90;;;;;;5030773;28;20585;-76
2021/12/11 02:39:07;;;;;;;37.85;17.70;;;-0.50;99.90;;;;;;5030228;28;20044;-76
2021/12/11 02:41:42;;;;;;;61.63;20.80;;;-0.50;99.90;;;;;;5046976;28;20440;-76
2021/12/11 02:44:33;;;;;;;75.45;22.92;;;-0.50;99.90;;;;;;5013508;28;20423;-76
2021/12/11 02:47:20;;;;;;;67.22;21.23;;;-0.50;99.90;;;;;;5030515;28;20187;-76
2021/12/11 02:49:56;;;;;;;71.20;22.48;;;-0.50;99.90;;;;;;5029973;28;20161;-76
2021/12/11 02:52:28;;;;;;;67.93;21.70;;;-0.50;99.90;;;;;;5030430;28;20033;-76
2021/12/11 02:55:11;;;;;;;66.28;23.30;;;-0.50;99.90;;;;;;5046737;28;20040;-76
2021/12/11 02:58:07;;;;;;;71.68;23.02;;;-0.50;99.90;;;;;;5030133;28;20041;-76
2021/12/11 03:00:39;;;;;;;105.43;26.58;;;-0.50;99.90;;;;;;5026390;28;20041;-76
2021/12/11 03:03:08;;;;;;;89.28;25.83;;;-0.50;99.90;;;;;;5030159;28;20037;-76
2021/12/11 03:05:44;;;;;;;179.85;30.50;;;-0.50;99.90;;;;;;5029479;28;20033;-76
2021/12/11 03:08:14;;;;;;;196.77;33.97;;;-0.50;99.90;;;;;;5047939;28;20056;-76
2021/12/11 03:10:42;;;;;;;155.80;32.58;;;-0.50;99.90;;;;;;5052028;28;20554;-76
2021/12/11 03:13:08;;;;;;;192.95;37.58;;;-0.40;99.90;;;;;;5052001;28;20021;-76
2021/12/11 03:15:34;;;;;;;123.68;31.17;;;-0.50;99.90;;;;;;5052007;28;20446;-76
2021/12/11 03:18:03;;;;;;;68.25;25.52;;;-0.40;99.90;;;;;;5052089;28;20028;-76
2021/12/11 03:20:29;;;;;;;67.50;24.30;;;-0.40;99.90;;;;;;5041389;28;20095;-76
2021/12/11 03:22:55;;;;;;;66.70;23.77;;;-0.40;99.90;;;;;;5047363;28;20029;-76
2021/12/11 03:25:25;;;;;;;138.70;31.35;;;-0.40;99.90;;;;;;5031958;28;20025;-76
2021/12/11 03:27:52;;;;;;;152.63;35.42;;;-0.40;99.90;;;;;;5031784;28;20029;-76
2021/12/11 03:30:23;;;;;;;96.28;29.13;;;-0.40;99.90;;;;;;5031985;28;20025;-76
2021/12/11 03:32:55;;;;;;;68.70;25.85;;;-0.40;99.90;;;;;;5031842;28;20021;-76
2021/12/11 03:35:22;;;;;;;70.93;24.73;;;-0.40;99.90;;;;;;5031818;28;20022;-76
2021/12/11 03:37:48;;;;;;;66.63;25.55;;;-0.40;99.90;;;;;;5031827;28;20026;-76
2021/12/11 03:40:14;;;;;;;57.70;23.20;;;-0.40;99.90;;;;;;5031775;28;20029;-76
2021/12/11 03:42:42;;;;;;;55.13;23.25;;;-0.40;99.90;;;;;;5031878;28;20034;-76
2021/12/11 03:45:14;;;;;;;80.65;29.15;;;-0.30;99.90;;;;;;5031874;28;20037;-76
2021/12/11 03:47:51;;;;;;;89.82;29.30;;;-0.30;99.90;;;;;;5031731;28;20040;-76
2021/12/11 03:50:20;;;;;;;85.75;28.42;;;-0.30;99.90;;;;;;5041443;28;20813;-76
2021/12/11 03:52:47;;;;;;;71.40;26.27;;;-0.30;99.90;;;;;;5031676;28;20384;-76
2021/12/11 03:55:19;;;;;;;70.82;26.67;;;-0.30;99.90;;;;;;5046833;28;20468;-76
2021/12/11 03:57:45;;;;;;;;;;;-0.20;99.90;;;;;;5031975;28;20091;-76
2021/12/11 04:00:17;;;;;;;106.45;26.52;;;-0.20;99.90;;;;;;5036927;28;19912;-76
2021/12/11 04:02:44;;;;;;;90.00;27.38;;;-0.20;99.90;;;;;;5051509;28;20057;-76
2021/12/11 04:05:11;;;;;;;83.47;28.35;;;-0.20;99.90;;;;;;5051476;28;20546;-76
2021/12/11 04:07:43;;;;;;;84.15;28.42;;;-0.20;99.90;;;;;;5051257;28;20041;-76
2021/12/11 04:10:11;;;;;;;484.45;58.80;;;-0.10;99.90;;;;;;5051364;28;20025;-76
2021/12/11 04:12:37;;;;;;;122.53;30.10;;;-0.10;99.90;;;;;;5051389;28;20091;-76
2021/12/11 04:15:05;;;;;;;115.07;26.92;;;0.00;99.90;;;;;;5050016;28;20033;-76
2021/12/11 04:17:31;;;;;;;365.92;46.72;;;0.00;99.90;;;;;;5053677;28;20021;-76
2021/12/11 04:20:00;;;;;;;363.98;52.05;;;0.10;99.90;;;;;;5055176;28;20021;-76
2021/12/11 04:22:26;;;;;;;121.20;34.47;;;0.10;99.90;;;;;;5055390;28;20113;-76
2021/12/11 04:24:52;;;;;;;113.00;30.75;;;0.10;99.90;;;;;;5055258;28;20044;-76
2021/12/11 04:27:21;;;;;;;157.25;34.13;;;0.10;99.90;;;;;;5055390;28;20028;-76
2021/12/11 04:29:50;;;;;;;118.25;33.40;;;0.20;99.90;;;;;;5055352;28;20040;-76
2021/12/11 04:32:17;;;;;;;155.13;34.05;;;0.20;99.90;;;;;;5055389;28;20429;-76
2021/12/11 04:34:44;;;;;;;141.45;33.95;;;0.20;99.90;;;;;;5055154;28;20166;-76
2021/12/11 04:37:15;;;;;;;119.38;33.03;;;0.20;99.90;;;;;;5055367;28;20028;-76
2021/12/11 04:39:45;;;;;;;116.45;32.22;;;0.20;99.90;;;;;;5053850;28;20451;-76
2021/12/11 04:42:22;;;;;;;182.65;34.78;;;0.30;99.90;;;;;;5055244;28;20048;-76
2021/12/11 04:44:48;;;;;;;97.47;30.75;;;0.40;99.90;;;;;;5055226;28;20029;-77
2021/12/11 04:47:29;;;;;;;87.30;28.95;;;0.40;99.90;;;;;;5053671;28;20052;-77
2021/12/11 04:50:01;;;;;;;459.48;55.55;;;0.40;99.90;;;;;;5043180;28;20056;-77
2021/12/11 04:55:13;;;;;;;130.57;34.35;;;0.50;99.90;;;;;;5034864;28;20038;-77
2021/12/11 04:58:06;;;;;;;95.03;31.30;;;0.50;99.90;;;;;;5034974;28;20022;-77
2021/12/11 05:11:13;;;;;;;103.00;35.25;;;0.90;99.90;;;;;;5034750;28;20086;-77
2021/12/11 05:13:41;;;;;;;83.40;32.25;;;0.90;99.90;;;;;;5034587;28;20152;-76
2021/12/11 05:16:10;;;;;;;97.00;33.80;;;0.90;99.90;;;;;;5034658;28;20064;-76
2021/12/11 05:18:39;;;;;;;113.13;36.65;;;0.90;99.90;;;;;;5034688;28;20057;-77
2021/12/11 05:21:08;;;;;;;109.68;35.53;;;1.00;99.90;;;;;;5034543;28;20025;-77
2021/12/11 05:23:34;;;;;;;123.82;38.03;;;1.00;99.90;;;;;;5034434;28;20021;-77
2021/12/11 05:26:00;;;;;;;126.15;37.05;;;1.00;99.90;;;;;;5034357;28;20036;-77
2021/12/11 05:28:25;;;;;;;122.85;36.90;;;1.10;99.90;;;;;;5034039;28;20463;-77
2021/12/11 05:31:01;;;;;;;80.90;31.02;;;1.10;99.90;;;;;;5034504;28;20063;-77
2021/12/11 05:33:27;;;;;;;92.60;33.65;;;1.20;99.90;;;;;;5034360;28;20383;-77
2021/12/11 05:35:53;;;;;;;108.28;33.83;;;1.20;99.90;;;;;;5034273;28;20100;-77
2021/12/11 05:38:21;;;;;;;95.57;34.65;;;1.20;99.90;;;;;;5034033;28;20025;-77
2021/12/11 05:40:51;;;;;;;106.03;33.78;;;1.20;99.90;;;;;;5034137;28;20041;-77
2021/12/11 05:43:18;;;;;;;72.60;29.58;;;1.30;99.90;;;;;;5034104;28;20105;-77
2021/12/11 05:45:45;;;;;;;90.38;32.22;;;1.30;99.90;;;;;;5034283;28;20029;-77
2021/12/11 05:48:11;;;;;;;94.60;33.92;;;1.40;99.90;;;;;;5034094;28;20049;-77
2021/12/11 05:50:46;;;;;;;83.80;30.77;;;1.40;99.90;;;;;;5051129;28;20052;-77
2021/12/11 05:53:13;;;;;;;96.70;32.55;;;1.40;99.90;;;;;;5053831;28;20024;-77
2021/12/11 05:55:40;;;;;;;72.63;27.90;;;1.40;99.90;;;;;;5053698;28;20547;-77
2021/12/11 05:58:11;;;;;;;65.38;27.52;;;1.40;99.90;;;;;;5053855;28;20112;-77
2021/12/11 06:00:42;;;;;;;59.90;26.55;;;1.40;99.90;;;;;;5053821;28;20025;-77
2021/12/11 06:03:08;;;;;;;66.18;27.55;;;1.40;99.90;;;;;;5053902;28;20028;-77
2021/12/11 06:05:35;;;;;;;67.35;26.80;;;1.50;99.90;;;;;;5053148;28;20029;-77
2021/12/11 06:08:00;;;;;;;59.65;26.52;;;1.50;99.90;;;;;;5054094;28;20040;-77
2021/12/11 06:10:27;;;;;;;85.72;31.33;;;1.50;99.90;;;;;;5053734;28;20017;-77
2021/12/11 06:12:56;;;;;;;120.00;34.63;;;1.50;99.90;;;;;;5053617;28;20097;-77
2021/12/11 06:15:23;;;;;;;77.38;28.23;;;1.60;99.90;;;;;;5053591;28;20067;-77
2021/12/11 06:17:49;;;;;;;73.05;27.40;;;1.60;99.90;;;;;;5052298;28;20029;-76
2021/12/11 06:20:18;;;;;;;69.20;27.48;;;1.60;99.90;;;;;;5044895;28;20151;-77
2021/12/11 06:22:45;;;;;;;146.55;36.95;;;1.70;99.90;;;;;;5033580;28;20352;-77
2021/12/11 06:25:26;;;;;;;91.57;30.23;;;1.60;99.90;;;;;;5033502;28;20041;-77
2021/12/11 06:27:52;;;;;;;77.63;29.73;;;1.70;99.90;;;;;;5052015;28;20025;-77
2021/12/11 06:30:18;;;;;;;78.55;30.58;;;1.70;99.90;;;;;;5053056;28;20099;-77
2021/12/11 06:32:46;;;;;;;88.10;30.40;;;1.80;99.90;;;;;;5053083;28;20025;-77
2021/12/11 06:35:23;;;;;;;62.30;26.80;;;1.80;99.90;;;;;;5053139;28;20348;-77
2021/12/11 06:37:49;;;;;;;65.75;26.58;;;1.80;99.90;;;;;;5051813;28;20049;-77
2021/12/11 06:40:16;;;;;;;83.10;30.00;;;1.90;99.90;;;;;;5052105;28;20053;-77
2021/12/11 06:42:41;;;;;;;100.53;31.90;;;1.90;99.90;;;;;;5053110;28;20031;-77
2021/12/11 06:45:07;;;;;;;82.50;30.05;;;1.90;99.90;;;;;;5052852;28;20096;-77
2021/12/11 06:47:33;;;;;;;58.20;25.48;;;2.00;99.90;;;;;;5051639;28;20128;-77
2021/12/11 06:49:59;;;;;;;91.97;30.58;;;2.00;99.90;;;;;;5052249;28;20052;-77
2021/12/11 06:52:26;;;;;;;80.10;29.05;;;2.00;99.90;;;;;;5052803;28;20025;-77
2021/12/11 06:54:53;;;;;;;162.60;37.67;;;2.10;99.90;;;;;;5052825;28;20017;-76
2021/12/11 06:57:19;;;;;;;109.85;31.92;;;2.20;99.90;;;;;;5049897;28;20067;-76
2021/12/11 06:59:47;;;;;;;99.50;30.85;;;2.20;99.90;;;;;;5052555;28;20029;-76
2021/12/11 07:02:14;;;;;;;146.07;37.00;;;2.10;99.90;;;;;;5052760;28;20024;-77
2021/12/11 07:04:40;;;;;;;112.57;33.70;;;2.20;99.90;;;;;;5052705;28;20050;-77
2021/12/11 07:07:05;;;;;;;128.30;34.13;;;2.20;99.90;;;;;;5050926;28;20547;-77
2021/12/11 07:09:31;;;;;;;101.95;31.40;;;2.20;99.90;;;;;;5052212;28;20025;-76
2021/12/11 07:11:58;;;;;;;89.18;30.02;;;2.30;99.90;;;;;;5052529;28;20021;-76
2021/12/11 07:14:27;;;;;;;115.22;36.28;;;2.30;99.90;;;;;;5050753;28;20017;-76
2021/12/11 07:16:53;;;;;;;120.47;35.83;;;2.30;99.90;;;;;;5052497;28;20096;-76
2021/12/11 07:19:19;;;;;;;87.00;31.20;;;2.30;99.90;;;;;;5050176;28;20032;-76
2021/12/11 07:21:50;;;;;;;113.05;33.95;;;2.30;99.90;;;;;;5052271;28;20029;-76
2021/12/11 07:24:23;;;;;;;116.07;33.92;;;2.40;99.90;;;;;;5052330;28;20017;-76
2021/12/11 07:26:50;;;;;;;86.47;30.73;;;2.40;99.90;;;;;;5052260;28;20104;-76
2021/12/11 07:29:19;;;;;;;120.82;34.70;;;2.40;99.90;;;;;;5051851;28;20017;-76
2021/12/11 07:31:46;;;;;;;113.10;34.45;;;2.40;99.90;;;;;;5052265;28;20460;-76
2021/12/11 07:34:15;;;;;;;108.43;34.17;;;2.50;99.90;;;;;;5052081;28;20031;-76
2021/12/11 07:36:41;;;;;;;111.28;33.47;;;2.60;99.90;;;;;;5049393;28;20096;-76
2021/12/11 07:39:11;;;;;;;102.57;32.13;;;2.60;99.90;;;;;;5051787;28;20032;-76
2021/12/11 07:41:37;;;;;;;169.85;37.17;;;2.60;99.90;;;;;;5051698;28;20024;-76
2021/12/11 07:44:03;;;;;;;114.22;33.03;;;2.60;99.90;;;;;;5050356;28;20025;-76
2021/12/11 07:46:31;;;;;;;96.50;31.02;;;2.60;99.90;;;;;;5050502;28;20491;-76
2021/12/11 07:48:58;;;;;;;76.32;28.08;;;2.70;99.90;;;;;;5051580;28;20024;-76
2021/12/11 07:51:26;;;;;;;84.13;29.40;;;2.70;99.90;;;;;;5051190;28;20033;-76
2021/12/11 07:53:53;;;;;;;81.63;28.33;;;2.60;99.90;;;;;;5051394;28;20037;-76
2021/12/11 07:56:20;;;;;;;103.57;30.77;;;2.70;99.90;;;;;;5051649;28;20021;-76
2021/12/11 07:58:47;;;;;;;94.50;30.30;;;2.70;99.90;;;;;;5051632;28;20079;-76
2021/12/11 08:01:13;;;;;;;79.60;27.65;;;2.70;99.90;;;;;;5050174;28;20044;-76
2021/12/11 08:03:39;;;;;;;110.82;33.28;;;2.70;99.90;;;;;;5051317;28;20064;-76
2021/12/11 08:06:07;;;;;;;100.50;31.33;;;2.70;99.90;;;;;;5051312;28;20029;-76
2021/12/11 08:08:33;;;;;;;90.55;30.20;;;2.70;99.90;;;;;;5050466;28;20033;-74
2021/12/11 08:11:01;;;;;;;79.63;29.83;;;2.80;99.90;;;;;;5051274;28;20119;-75
2021/12/11 08:13:27;;;;;;;84.65;29.15;;;2.80;99.90;;;;;;5051251;28;20025;-76
2021/12/11 08:15:55;;;;;;;83.30;29.75;;;2.80;99.90;;;;;;5050819;28;20045;-76
2021/12/11 08:18:22;;;;;;;86.35;29.73;;;2.80;99.90;;;;;;5050852;28;20013;-76
2021/12/11 08:20:48;;;;;;;72.20;26.92;;;2.80;99.90;;;;;;5049288;28;20032;-76
2021/12/11 08:23:16;;;;;;;74.05;28.63;;;2.80;99.90;;;;;;5050640;28;20017;-76
2021/12/11 08:25:44;;;;;;;580.45;198.38;;;2.80;99.90;;;;;;5050561;28;20028;-76
2021/12/11 08:28:14;;;;;;;160.10;62.85;;;2.90;99.90;;;;;;5048819;28;20456;-76
2021/12/11 08:30:42;;;;;;;106.03;38.83;;;2.90;99.90;;;;;;5050751;28;20025;-75
2021/12/11 08:33:08;;;;;;;100.05;34.60;;;2.90;99.90;;;;;;5049942;28;20036;-76
2021/12/11 08:35:35;;;;;;;122.68;36.63;;;2.80;99.90;;;;;;5050519;28;20021;-76
2021/12/11 08:38:03;;;;;;;83.07;29.98;;;2.80;99.90;;;;;;5050550;28;20112;-76
2021/12/11 08:40:34;;;;;;;72.30;27.58;;;2.70;99.90;;;;;;5048538;28;20071;-76
2021/12/11 08:43:01;;;;;;;70.57;26.85;;;2.60;99.90;;;;;;5050589;28;20048;-76
2021/12/11 08:45:43;;;;;;;84.68;28.92;;;2.50;99.90;;;;;;5050453;28;20020;-75
2021/12/11 08:48:10;;;;;;;254.15;41.22;;;2.50;99.90;;;;;;5049872;28;20013;-76
2021/12/11 08:50:36;;;;;;;178.55;38.88;;;2.40;99.90;;;;;;5050197;28;20764;-76
2021/12/11 08:53:02;;;;;;;130.90;32.72;;;2.40;99.90;;;;;;5049006;28;20032;-76
2021/12/11 08:55:33;;;;;;;291.63;43.42;;;2.30;99.90;;;;;;5049768;28;20021;-76
2021/12/11 08:58:00;;;;;;;113.07;31.55;;;2.20;99.90;;;;;;5049091;28;20025;-76
2021/12/11 09:00:37;;;;;;;132.80;32.78;;;2.20;99.90;;;;;;5050286;28;20494;-76
2021/12/11 09:03:11;;;;;;;87.60;30.42;;;2.20;99.90;;;;;;5050942;28;20439;-76
2021/12/11 09:05:51;;;;;;;124.05;31.63;;;2.30;99.90;;;;;;5052419;28;20033;-76
2021/12/11 09:08:22;;;;;;;80.07;30.00;;;2.40;99.90;;;;;;5052544;28;20040;-76
2021/12/11 09:10:50;;;;;;;110.90;32.33;;;2.60;99.90;;;;;;5052407;28;20021;-76
2021/12/11 09:13:38;;;;;;;93.78;30.27;;;2.70;99.90;;;;;;5052139;28;20025;-76
2021/12/11 09:16:13;;;;;;;161.23;39.35;;;2.90;99.90;;;;;;5053833;28;20017;-76
2021/12/11 09:18:46;;;;;;;197.48;41.05;;;3.10;99.90;;;;;;5052578;28;20021;-76
2021/12/11 09:21:19;;;;;;;171.88;39.72;;;3.10;99.90;;;;;;5052298;28;20475;-76
2021/12/11 09:23:52;;;;;;;210.43;41.78;;;3.30;99.90;;;;;;5053943;28;20462;-75
2021/12/11 09:26:31;;;;;;;221.70;41.97;;;3.30;99.90;;;;;;5053848;28;20017;-76
2021/12/11 09:29:03;;;;;;;136.38;37.80;;;3.40;99.90;;;;;;5052409;28;20472;-76
2021/12/11 09:31:32;;;;;;;139.82;38.60;;;3.50;99.90;;;;;;5050058;28;20032;-76
2021/12/11 09:34:20;;;;;;;137.02;38.15;;;3.60;99.90;;;;;;5053809;28;20425;-76
2021/12/11 09:36:50;;;;;;;138.98;41.45;;;3.80;99.90;;;;;;5053737;28;20143;-76
2021/12/11 09:39:41;;;;;;;164.77;44.20;;;3.90;99.90;;;;;;5053702;28;20021;-76
2021/12/11 09:42:07;;;;;;;138.23;40.45;;;4.00;99.90;;;;;;5031108;28;20165;-75
2021/12/11 09:44:42;;;;;;;156.10;42.55;;;4.00;99.90;;;;;;5014383;28;20049;-76
2021/12/11 09:47:18;;;;;;;143.02;41.78;;;3.90;99.90;;;;;;5028860;28;20049;-75
2021/12/11 09:49:53;;;;;;;128.90;41.72;;;3.90;99.90;;;;;;5021203;28;20078;-75
2021/12/11 09:52:24;;;;;;;169.27;43.50;;;4.00;99.90;;;;;;5031541;28;20037;-76
2021/12/11 09:55:15;;;;;;;264.05;53.95;;;3.90;99.90;;;;;;5031438;28;20048;-76
2021/12/11 09:57:46;;;;;;;364.15;70.95;;;4.00;99.90;;;;;;5031487;28;20071;-76
2021/12/11 10:00:23;;;;;;;433.73;75.15;;;4.10;99.90;;;;;;5031526;28;20033;-76
2021/12/11 10:02:49;;;;;;;521.40;73.50;;;4.20;99.90;;;;;;5028256;28;20195;-76
2021/12/11 10:05:36;;;;;;;470.20;63.47;;;4.00;99.90;;;;;;5031014;28;20045;-75
2021/12/11 10:11:05;;;;;;;981.03;117.50;;;4.00;99.90;;;;;;5031202;28;20033;-75
2021/12/11 10:13:34;;;;;;;810.95;99.53;;;4.00;99.90;;;;;;5031237;28;20060;-78
2021/12/11 10:16:00;;;;;;;885.75;109.40;;;4.10;99.90;;;;;;5030361;28;20052;-75
2021/12/11 10:18:28;;;;;;;850.58;82.88;;;4.20;99.90;;;;;;5035478;28;20029;-79
2021/12/11 10:21:17;;;;;;;764.50;74.85;;;4.10;99.90;;;;;;5053785;28;20047;-79
2021/12/11 10:23:47;;;;;;;438.13;54.50;;;4.00;99.90;;;;;;5042165;28;20522;-79
2021/12/11 10:26:14;;;;;;;817.63;74.25;;;4.20;99.90;;;;;;5012461;28;20063;-79
2021/12/11 10:28:44;;;;;;;688.50;61.72;;;4.10;99.90;;;;;;5019501;28;20064;-78
2021/12/11 10:31:13;;;;;;;1110.72;98.32;;;4.10;99.90;;;;;;5031863;28;20045;-78
2021/12/11 10:33:40;;;;;;;480.80;51.47;;;4.20;99.90;;;;;;5031739;28;20098;-79
2021/12/11 10:36:10;;;;;;;312.75;42.80;;;4.20;99.90;;;;;;5031986;28;20033;-79
2021/12/11 10:38:36;;;;;;;476.20;58.90;;;4.30;99.90;;;;;;5031672;28;20032;-78
2021/12/11 10:41:05;;;;;;;820.80;79.63;;;4.20;99.90;;;;;;5031834;28;20038;-77
2021/12/11 10:43:48;;;;;;;432.00;57.17;;;4.10;99.90;;;;;;5031537;28;20133;-78
2021/12/11 10:46:16;;;;;;;547.35;61.92;;;4.30;99.90;;;;;;5031643;28;20030;-78
2021/12/11 10:48:42;;;;;;;1056.63;104.30;;;4.40;99.90;;;;;;5031351;28;20065;-78
2021/12/11 10:51:11;;;;;;;601.95;74.75;;;4.30;99.90;;;;;;5031376;28;20045;-79
2021/12/11 10:53:40;;;;;;;791.45;88.38;;;4.30;99.90;;;;;;5014770;28;20034;-79
2021/12/11 10:56:07;;;;;;;1356.07;168.43;;;4.40;99.90;;;;;;5031714;28;20091;-79
2021/12/11 10:58:38;;;;;;;548.30;73.05;;;4.50;99.90;;;;;;5031156;28;20030;-78
2021/12/11 11:01:12;;;;;;;1497.83;142.20;;;4.50;99.90;;;;;;5035936;28;20029;-78
2021/12/11 11:03:41;;;;;;;759.72;94.10;;;4.30;99.90;;;;;;5051653;28;20283;-78
2021/12/11 11:06:08;;;;;;;819.55;89.85;;;4.30;99.90;;;;;;5050461;28;20021;-79
2021/12/11 11:08:33;;;;;;;642.88;70.57;;;4.40;99.90;;;;;;5050805;28;20116;-79
2021/12/11 11:11:06;;;;;;;336.67;55.53;;;4.40;99.90;;;;;;5052744;28;20093;-79
2021/12/11 11:13:32;;;;;;;342.90;52.70;;;4.50;99.90;;;;;;5053085;28;20032;-79
2021/12/11 11:15:59;;;;;;;1028.07;118.57;;;4.70;99.90;;;;;;5053199;28;20049;-79
2021/12/11 11:18:27;;;;;;;961.85;126.97;;;4.50;99.90;;;;;;5053031;28;20075;-79
2021/12/11 11:20:59;;;;;;;310.25;49.95;;;4.30;99.90;;;;;;5052966;28;20121;-79
2021/12/11 11:23:25;;;;;;;248.55;38.95;;;4.50;99.90;;;;;;5051538;28;20111;-79
2021/12/11 11:25:53;;;;;;;516.47;61.90;;;4.60;99.90;;;;;;5051973;28;20072;-79
2021/12/11 11:28:23;;;;;;;437.42;56.33;;;4.60;99.90;;;;;;5051933;28;20013;-79
2021/12/11 11:30:56;;;;;;;1029.45;109.13;;;4.70;99.90;;;;;;5051740;28;20025;-80
2021/12/11 11:33:23;;;;;;;879.35;101.40;;;4.70;99.90;;;;;;5051450;28;20455;-76
2021/12/11 11:35:50;;;;;;;647.35;75.55;;;4.30;99.90;;;;;;5051406;28;20021;-76
2021/12/11 11:38:21;;;;;;;356.75;60.83;;;4.30;99.90;;;;;;5051285;28;20029;-76
2021/12/11 11:40:50;;;;;;;295.50;47.83;;;4.40;99.90;;;;;;5051993;28;20029;-77
2021/12/11 11:43:16;;;;;;;718.58;106.57;;;4.50;99.90;;;;;;5051787;28;20477;-77
2021/12/11 11:45:43;;;;;;;247.75;54.45;;;4.50;99.90;;;;;;5048976;28;20117;-77
2021/12/11 11:48:10;;;;;;;556.63;68.70;;;4.50;99.90;;;;;;5051604;28;20402;-76
2021/12/11 11:50:40;;;;;;;704.72;79.28;;;4.30;99.90;;;;;;5050429;28;20063;-76
2021/12/11 11:53:07;;;;;;;391.90;45.63;;;4.40;99.90;;;;;;5047597;28;20048;-76
2021/12/11 11:55:39;;;;;;;558.95;76.55;;;4.30;99.90;;;;;;5050986;28;20040;-76
2021/12/11 11:58:06;;;;;;;448.13;56.65;;;4.40;99.90;;;;;;5048560;28;20024;-76
2021/12/11 12:00:43;;;;;;;144.32;37.58;;;4.30;99.90;;;;;;5050141;28;20032;-76
2021/12/11 12:03:15;;;;;;;400.02;52.13;;;4.40;99.90;;;;;;5045823;28;20021;-75
2021/12/11 12:05:42;;;;;;;261.00;39.53;;;4.40;99.90;;;;;;5050791;28;20025;-75
2021/12/11 12:08:10;;;;;;;381.45;48.78;;;4.50;99.90;;;;;;5051496;28;20300;-77
2021/12/11 12:10:38;;;;;;;307.15;49.03;;;4.30;99.90;;;;;;5049990;28;20028;-75
2021/12/11 12:13:07;;;;;;;129.48;38.42;;;4.40;99.90;;;;;;5051078;28;20021;-74
2021/12/11 12:15:41;;;;;;;152.40;37.08;;;4.50;99.90;;;;;;5051115;28;20051;-75
2021/12/11 12:18:07;;;;;;;179.70;40.72;;;4.60;99.90;;;;;;5049984;28;20021;-77
2021/12/11 12:20:34;;;;;;;203.05;39.33;;;4.60;99.90;;;;;;5052233;28;20044;-78
2021/12/11 12:23:01;;;;;;;516.97;65.28;;;4.60;99.90;;;;;;5051597;28;20029;-78
2021/12/11 12:25:28;;;;;;;422.73;60.95;;;4.60;99.90;;;;;;5052073;28;20078;-78
2021/12/11 12:27:54;;;;;;;301.13;54.38;;;4.70;99.90;;;;;;5051874;28;20025;-78
2021/12/11 12:30:22;;;;;;;184.48;37.67;;;4.60;99.90;;;;;;5051983;28;20120;-78
2021/12/11 12:32:51;;;;;;;389.80;56.92;;;4.60;99.90;;;;;;5051590;28;20036;-78
2021/12/11 12:35:18;;;;;;;205.65;38.75;;;4.90;99.90;;;;;;5051447;28;20058;-78
2021/12/11 12:37:46;;;;;;;128.95;33.75;;;5.00;99.90;;;;;;5052561;28;20032;-78
2021/12/11 12:40:18;;;;;;;194.05;40.10;;;4.90;99.90;;;;;;5055484;28;20028;-78
2021/12/11 12:42:51;;;;;;;76.18;29.38;;;4.90;99.90;;;;;;5054345;28;20147;-78
2021/12/11 12:45:28;;;;;;;88.75;27.60;;;5.10;99.90;;;;;;5055782;28;20033;-78
2021/12/11 12:48:01;;;;;;;98.40;28.63;;;5.30;99.90;;;;;;5037598;28;20044;-78
2021/12/11 12:50:47;;;;;;;227.20;37.30;;;5.30;99.90;;;;;;5053875;28;20049;-78
2021/12/11 12:53:13;;;;;;;250.38;42.25;;;5.30;99.90;;;;;;5055248;28;20037;-78
2021/12/11 12:55:48;;;;;;;64.03;27.00;;;5.30;99.90;;;;;;5055412;28;20024;-78
2021/12/11 12:58:22;;;;;;;136.98;32.80;;;5.50;99.90;;;;;;5055258;28;20039;-78
2021/12/11 13:00:57;;;;;;;77.65;26.33;;;5.40;99.90;;;;;;5053981;28;20044;-78